sensor_id;sensor_type;location;lat;lon;timestamp;P1;durP1;ratioP1;P2;durP2;ratioP2
75787;SDS011;64406;50.024;14.492;2023-04-03T00:00:42;2.33;;;2.00;;
75787;SDS011;64406;50.024;14.492;2023-04-03T00:03:16;5.13;;;2.20;;
75787;SDS011;64406;50.024;14.492;2023-04-03T00:05:43;4.97;;;2.55;;
75787;SDS011;64406;50.024;14.492;2023-04-03T00:08:08;3.58;;;2.03;;
75787;SDS011;64406;50.024;14.492;2023-04-03T00:10:35;4.15;;;2.08;;
75787;SDS011;64406;50.024;14.492;2023-04-03T00:13:03;5.57;;;1.95;;
75787;SDS011;64406;50.024;14.492;2023-04-03T00:15:29;3.35;;;1.88;;
75787;SDS011;64406;50.024;14.492;2023-04-03T00:17:55;3.53;;;1.73;;
75787;SDS011;64406;50.024;14.492;2023-04-03T00:20:21;4.07;;;2.22;;
75787;SDS011;64406;50.024;14.492;2023-04-03T00:22:47;3.58;;;2.47;;
75787;SDS011;64406;50.024;14.492;2023-04-03T00:25:12;3.15;;;1.80;;
75787;SDS011;64406;50.024;14.492;2023-04-03T00:27:38;3.35;;;2.10;;
75787;SDS011;64406;50.024;14.492;2023-04-03T00:30:05;5.63;;;2.00;;
75787;SDS011;64406;50.024;14.492;2023-04-03T00:32:33;6.93;;;3.17;;
75787;SDS011;64406;50.024;14.492;2023-04-03T00:34:58;6.07;;;2.35;;
75787;SDS011;64406;50.024;14.492;2023-04-03T00:37:24;4.55;;;2.38;;
75787;SDS011;64406;50.024;14.492;2023-04-03T00:39:50;5.43;;;3.10;;
75787;SDS011;64406;50.024;14.492;2023-04-03T00:42:16;5.00;;;2.38;;
75787;SDS011;64406;50.024;14.492;2023-04-03T00:47:08;9.45;;;2.40;;
75787;SDS011;64406;50.024;14.492;2023-04-03T00:49:40;8.38;;;3.00;;
75787;SDS011;64406;50.024;14.492;2023-04-03T00:52:07;3.65;;;2.47;;
75787;SDS011;64406;50.024;14.492;2023-04-03T00:54:37;2.85;;;1.92;;
75787;SDS011;64406;50.024;14.492;2023-04-03T00:57:07;5.40;;;2.38;;
75787;SDS011;64406;50.024;14.492;2023-04-03T00:59:34;3.53;;;2.00;;
75787;SDS011;64406;50.024;14.492;2023-04-03T01:02:05;4.18;;;1.92;;
75787;SDS011;64406;50.024;14.492;2023-04-03T01:04:32;4.28;;;2.42;;
75787;SDS011;64406;50.024;14.492;2023-04-03T01:07:02;4.50;;;2.78;;
75787;SDS011;64406;50.024;14.492;2023-04-03T01:09:31;6.10;;;2.38;;
75787;SDS011;64406;50.024;14.492;2023-04-03T01:14:52;4.10;;;2.03;;
75787;SDS011;64406;50.024;14.492;2023-04-03T01:17:28;4.53;;;2.03;;
75787;SDS011;64406;50.024;14.492;2023-04-03T01:25:51;7.90;;;2.25;;
75787;SDS011;64406;50.024;14.492;2023-04-03T01:31:01;7.55;;;2.22;;
75787;SDS011;64406;50.024;14.492;2023-04-03T01:33:27;6.30;;;2.45;;
75787;SDS011;64406;50.024;14.492;2023-04-03T01:35:54;3.70;;;2.07;;
75787;SDS011;64406;50.024;14.492;2023-04-03T01:38:20;6.33;;;2.00;;
75787;SDS011;64406;50.024;14.492;2023-04-03T01:40:45;4.57;;;2.27;;
75787;SDS011;64406;50.024;14.492;2023-04-03T01:43:11;7.47;;;2.15;;
75787;SDS011;64406;50.024;14.492;2023-04-03T01:45:37;3.15;;;2.03;;
75787;SDS011;64406;50.024;14.492;2023-04-03T01:48:02;6.90;;;1.90;;
75787;SDS011;64406;50.024;14.492;2023-04-03T01:50:29;4.00;;;1.80;;
75787;SDS011;64406;50.024;14.492;2023-04-03T01:52:54;5.00;;;2.10;;
75787;SDS011;64406;50.024;14.492;2023-04-03T01:55:20;6.50;;;2.13;;
75787;SDS011;64406;50.024;14.492;2023-04-03T01:57:46;3.23;;;1.97;;
75787;SDS011;64406;50.024;14.492;2023-04-03T02:00:12;4.57;;;1.43;;
75787;SDS011;64406;50.024;14.492;2023-04-03T02:02:38;2.83;;;1.67;;
75787;SDS011;64406;50.024;14.492;2023-04-03T02:05:04;5.77;;;2.17;;
75787;SDS011;64406;50.024;14.492;2023-04-03T02:07:30;6.17;;;2.10;;
75787;SDS011;64406;50.024;14.492;2023-04-03T02:09:55;6.47;;;1.97;;
75787;SDS011;64406;50.024;14.492;2023-04-03T02:12:21;4.90;;;2.00;;
75787;SDS011;64406;50.024;14.492;2023-04-03T02:14:47;5.30;;;2.03;;
75787;SDS011;64406;50.024;14.492;2023-04-03T02:17:13;4.43;;;1.77;;
75787;SDS011;64406;50.024;14.492;2023-04-03T02:19:38;4.00;;;2.00;;
75787;SDS011;64406;50.024;14.492;2023-04-03T02:22:05;3.97;;;2.37;;
75787;SDS011;64406;50.024;14.492;2023-04-03T02:24:30;4.37;;;1.63;;
75787;SDS011;64406;50.024;14.492;2023-04-03T02:26:57;2.37;;;1.40;;
75787;SDS011;64406;50.024;14.492;2023-04-03T02:29:22;5.43;;;1.60;;
75787;SDS011;64406;50.024;14.492;2023-04-03T02:31:49;5.63;;;1.93;;
75787;SDS011;64406;50.024;14.492;2023-04-03T02:34:15;3.97;;;1.53;;
75787;SDS011;64406;50.024;14.492;2023-04-03T02:36:41;3.10;;;1.63;;
75787;SDS011;64406;50.024;14.492;2023-04-03T02:39:07;4.53;;;1.93;;
75787;SDS011;64406;50.024;14.492;2023-04-03T02:41:33;2.60;;;1.37;;
75787;SDS011;64406;50.024;14.492;2023-04-03T02:44:01;2.90;;;1.37;;
75787;SDS011;64406;50.024;14.492;2023-04-03T02:46:28;3.93;;;1.67;;
75787;SDS011;64406;50.024;14.492;2023-04-03T02:48:53;3.37;;;1.73;;
75787;SDS011;64406;50.024;14.492;2023-04-03T02:51:20;3.07;;;1.57;;
75787;SDS011;64406;50.024;14.492;2023-04-03T02:53:45;1.87;;;1.37;;
75787;SDS011;64406;50.024;14.492;2023-04-03T02:56:11;3.47;;;1.47;;
75787;SDS011;64406;50.024;14.492;2023-04-03T02:58:37;3.97;;;1.83;;
75787;SDS011;64406;50.024;14.492;2023-04-03T03:01:03;4.57;;;1.43;;
75787;SDS011;64406;50.024;14.492;2023-04-03T03:03:29;4.67;;;1.70;;
75787;SDS011;64406;50.024;14.492;2023-04-03T03:06:04;11.53;;;1.97;;
75787;SDS011;64406;50.024;14.492;2023-04-03T03:08:31;3.87;;;1.40;;
75787;SDS011;64406;50.024;14.492;2023-04-03T03:10:57;4.97;;;1.73;;
75787;SDS011;64406;50.024;14.492;2023-04-03T03:13:23;3.63;;;1.20;;
75787;SDS011;64406;50.024;14.492;2023-04-03T03:15:49;2.70;;;1.40;;
75787;SDS011;64406;50.024;14.492;2023-04-03T03:18:14;5.53;;;1.57;;
75787;SDS011;64406;50.024;14.492;2023-04-03T03:20:40;4.77;;;1.57;;
75787;SDS011;64406;50.024;14.492;2023-04-03T03:23:06;7.27;;;1.73;;
75787;SDS011;64406;50.024;14.492;2023-04-03T03:25:32;4.37;;;1.40;;
75787;SDS011;64406;50.024;14.492;2023-04-03T03:27:59;3.97;;;1.40;;
75787;SDS011;64406;50.024;14.492;2023-04-03T03:30:24;5.83;;;1.57;;
75787;SDS011;64406;50.024;14.492;2023-04-03T03:32:51;4.23;;;1.50;;
75787;SDS011;64406;50.024;14.492;2023-04-03T03:35:17;6.23;;;1.90;;
75787;SDS011;64406;50.024;14.492;2023-04-03T03:37:42;3.77;;;1.57;;
75787;SDS011;64406;50.024;14.492;2023-04-03T03:40:08;1.97;;;1.40;;
75787;SDS011;64406;50.024;14.492;2023-04-03T03:42:34;4.23;;;1.33;;
75787;SDS011;64406;50.024;14.492;2023-04-03T03:45:00;2.83;;;1.50;;
75787;SDS011;64406;50.024;14.492;2023-04-03T03:47:25;5.80;;;1.57;;
75787;SDS011;64406;50.024;14.492;2023-04-03T03:49:51;3.73;;;1.47;;
75787;SDS011;64406;50.024;14.492;2023-04-03T03:52:17;3.50;;;1.50;;
75787;SDS011;64406;50.024;14.492;2023-04-03T03:54:43;3.93;;;1.60;;
75787;SDS011;64406;50.024;14.492;2023-04-03T03:57:08;4.77;;;1.27;;
75787;SDS011;64406;50.024;14.492;2023-04-03T03:59:34;4.73;;;1.90;;
75787;SDS011;64406;50.024;14.492;2023-04-03T04:02:00;5.37;;;1.67;;
75787;SDS011;64406;50.024;14.492;2023-04-03T04:04:26;6.00;;;1.83;;
75787;SDS011;64406;50.024;14.492;2023-04-03T04:06:51;3.27;;;1.30;;
75787;SDS011;64406;50.024;14.492;2023-04-03T04:09:17;3.53;;;1.40;;
75787;SDS011;64406;50.024;14.492;2023-04-03T04:11:43;2.87;;;1.43;;
75787;SDS011;64406;50.024;14.492;2023-04-03T04:14:09;2.43;;;1.57;;
75787;SDS011;64406;50.024;14.492;2023-04-03T04:16:37;2.90;;;1.50;;
75787;SDS011;64406;50.024;14.492;2023-04-03T04:19:03;3.83;;;1.60;;
75787;SDS011;64406;50.024;14.492;2023-04-03T04:21:28;2.97;;;1.37;;
75787;SDS011;64406;50.024;14.492;2023-04-03T04:23:54;3.33;;;1.27;;
75787;SDS011;64406;50.024;14.492;2023-04-03T04:26:20;5.73;;;2.17;;
75787;SDS011;64406;50.024;14.492;2023-04-03T04:28:46;4.33;;;1.30;;
75787;SDS011;64406;50.024;14.492;2023-04-03T04:31:11;4.30;;;1.80;;
75787;SDS011;64406;50.024;14.492;2023-04-03T04:33:37;8.33;;;1.60;;
75787;SDS011;64406;50.024;14.492;2023-04-03T04:36:02;8.50;;;1.67;;
75787;SDS011;64406;50.024;14.492;2023-04-03T04:38:28;5.03;;;1.60;;
75787;SDS011;64406;50.024;14.492;2023-04-03T04:40:55;4.77;;;1.57;;
75787;SDS011;64406;50.024;14.492;2023-04-03T04:43:20;4.30;;;1.50;;
75787;SDS011;64406;50.024;14.492;2023-04-03T04:45:46;7.30;;;1.83;;
75787;SDS011;64406;50.024;14.492;2023-04-03T04:48:12;11.73;;;1.97;;
75787;SDS011;64406;50.024;14.492;2023-04-03T04:50:38;3.77;;;2.10;;
75787;SDS011;64406;50.024;14.492;2023-04-03T04:53:03;4.97;;;1.57;;
75787;SDS011;64406;50.024;14.492;2023-04-03T04:55:29;5.20;;;2.07;;
75787;SDS011;64406;50.024;14.492;2023-04-03T04:57:55;7.00;;;2.07;;
75787;SDS011;64406;50.024;14.492;2023-04-03T05:00:20;6.73;;;1.80;;
75787;SDS011;64406;50.024;14.492;2023-04-03T05:02:46;3.97;;;1.67;;
75787;SDS011;64406;50.024;14.492;2023-04-03T05:05:12;4.37;;;2.30;;
75787;SDS011;64406;50.024;14.492;2023-04-03T05:07:38;4.53;;;2.30;;
75787;SDS011;64406;50.024;14.492;2023-04-03T05:10:03;6.40;;;1.80;;
75787;SDS011;64406;50.024;14.492;2023-04-03T05:12:31;7.57;;;1.83;;
75787;SDS011;64406;50.024;14.492;2023-04-03T05:14:57;8.97;;;2.23;;
75787;SDS011;64406;50.024;14.492;2023-04-03T05:17:23;4.67;;;1.77;;
75787;SDS011;64406;50.024;14.492;2023-04-03T05:19:48;5.63;;;1.83;;
75787;SDS011;64406;50.024;14.492;2023-04-03T05:22:14;3.57;;;1.87;;
75787;SDS011;64406;50.024;14.492;2023-04-03T05:24:40;10.10;;;2.10;;
75787;SDS011;64406;50.024;14.492;2023-04-03T05:27:06;5.70;;;1.90;;
75787;SDS011;64406;50.024;14.492;2023-04-03T05:29:31;3.97;;;1.93;;
75787;SDS011;64406;50.024;14.492;2023-04-03T05:31:58;4.07;;;1.97;;
75787;SDS011;64406;50.024;14.492;2023-04-03T05:34:24;5.23;;;2.47;;
75787;SDS011;64406;50.024;14.492;2023-04-03T05:36:52;7.73;;;2.83;;
75787;SDS011;64406;50.024;14.492;2023-04-03T05:39:18;3.50;;;2.27;;
75787;SDS011;64406;50.024;14.492;2023-04-03T05:41:45;3.03;;;2.00;;
75787;SDS011;64406;50.024;14.492;2023-04-03T05:44:11;3.07;;;1.73;;
75787;SDS011;64406;50.024;14.492;2023-04-03T05:46:37;8.07;;;2.30;;
75787;SDS011;64406;50.024;14.492;2023-04-03T05:49:02;5.03;;;1.97;;
75787;SDS011;64406;50.024;14.492;2023-04-03T05:51:33;7.53;;;2.37;;
75787;SDS011;64406;50.024;14.492;2023-04-03T05:56:42;7.60;;;2.40;;
75787;SDS011;64406;50.024;14.492;2023-04-03T05:59:09;5.93;;;2.27;;
75787;SDS011;64406;50.024;14.492;2023-04-03T06:01:38;6.80;;;1.90;;
75787;SDS011;64406;50.024;14.492;2023-04-03T06:04:04;2.87;;;1.93;;
75787;SDS011;64406;50.024;14.492;2023-04-03T06:06:49;4.00;;;2.27;;
75787;SDS011;64406;50.024;14.492;2023-04-03T06:09:21;7.37;;;2.00;;
75787;SDS011;64406;50.024;14.492;2023-04-03T06:11:48;4.93;;;2.40;;
75787;SDS011;64406;50.024;14.492;2023-04-03T06:14:15;2.93;;;2.30;;
75787;SDS011;64406;50.024;14.492;2023-04-03T06:16:42;8.03;;;2.50;;
75787;SDS011;64406;50.024;14.492;2023-04-03T06:19:09;2.43;;;1.80;;
75787;SDS011;64406;50.024;14.492;2023-04-03T06:21:36;3.17;;;2.23;;
75787;SDS011;64406;50.024;14.492;2023-04-03T06:24:04;7.63;;;3.30;;
75787;SDS011;64406;50.024;14.492;2023-04-03T06:26:32;3.80;;;2.10;;
75787;SDS011;64406;50.024;14.492;2023-04-03T06:28:58;4.33;;;2.10;;
75787;SDS011;64406;50.024;14.492;2023-04-03T06:31:26;6.40;;;2.60;;
75787;SDS011;64406;50.024;14.492;2023-04-03T06:33:51;7.33;;;2.70;;
75787;SDS011;64406;50.024;14.492;2023-04-03T06:36:18;5.13;;;2.53;;
75787;SDS011;64406;50.024;14.492;2023-04-03T06:38:45;5.47;;;2.70;;
75787;SDS011;64406;50.024;14.492;2023-04-03T06:41:12;6.13;;;2.33;;
75787;SDS011;64406;50.024;14.492;2023-04-03T06:43:37;5.23;;;2.40;;
75787;SDS011;64406;50.024;14.492;2023-04-03T06:46:03;4.83;;;2.60;;
75787;SDS011;64406;50.024;14.492;2023-04-03T06:48:30;10.40;;;2.90;;
75787;SDS011;64406;50.024;14.492;2023-04-03T06:50:58;3.43;;;2.20;;
75787;SDS011;64406;50.024;14.492;2023-04-03T06:53:24;5.10;;;2.47;;
75787;SDS011;64406;50.024;14.492;2023-04-03T06:55:50;3.90;;;2.30;;
75787;SDS011;64406;50.024;14.492;2023-04-03T06:58:16;4.33;;;2.80;;
75787;SDS011;64406;50.024;14.492;2023-04-03T07:00:51;4.33;;;2.30;;
75787;SDS011;64406;50.024;14.492;2023-04-03T07:03:16;4.70;;;2.73;;
75787;SDS011;64406;50.024;14.492;2023-04-03T07:05:42;3.07;;;1.97;;
75787;SDS011;64406;50.024;14.492;2023-04-03T07:08:09;5.23;;;2.17;;
75787;SDS011;64406;50.024;14.492;2023-04-03T07:10:37;4.20;;;2.30;;
75787;SDS011;64406;50.024;14.492;2023-04-03T07:13:03;5.03;;;2.63;;
75787;SDS011;64406;50.024;14.492;2023-04-03T07:15:29;3.90;;;2.00;;
75787;SDS011;64406;50.024;14.492;2023-04-03T07:17:55;4.20;;;2.00;;
75787;SDS011;64406;50.024;14.492;2023-04-03T07:20:21;6.50;;;2.40;;
75787;SDS011;64406;50.024;14.492;2023-04-03T07:22:48;9.43;;;2.40;;
75787;SDS011;64406;50.024;14.492;2023-04-03T07:25:13;5.10;;;2.60;;
75787;SDS011;64406;50.024;14.492;2023-04-03T07:27:40;4.90;;;2.40;;
75787;SDS011;64406;50.024;14.492;2023-04-03T07:30:06;4.57;;;2.53;;
75787;SDS011;64406;50.024;14.492;2023-04-03T07:32:32;3.77;;;2.13;;
75787;SDS011;64406;50.024;14.492;2023-04-03T07:34:58;3.03;;;2.20;;
75787;SDS011;64406;50.024;14.492;2023-04-03T07:37:24;7.23;;;2.63;;
75787;SDS011;64406;50.024;14.492;2023-04-03T07:39:50;2.23;;;1.87;;
75787;SDS011;64406;50.024;14.492;2023-04-03T07:42:16;10.87;;;2.90;;
75787;SDS011;64406;50.024;14.492;2023-04-03T07:44:41;2.67;;;1.97;;
75787;SDS011;64406;50.024;14.492;2023-04-03T07:47:07;4.13;;;2.13;;
75787;SDS011;64406;50.024;14.492;2023-04-03T07:49:34;5.13;;;2.30;;
75787;SDS011;64406;50.024;14.492;2023-04-03T07:52:03;5.17;;;2.60;;
75787;SDS011;64406;50.024;14.492;2023-04-03T07:54:29;5.10;;;2.10;;
75787;SDS011;64406;50.024;14.492;2023-04-03T07:56:55;3.23;;;1.83;;
75787;SDS011;64406;50.024;14.492;2023-04-03T07:59:23;2.70;;;1.93;;
75787;SDS011;64406;50.024;14.492;2023-04-03T08:01:48;5.77;;;2.50;;
75787;SDS011;64406;50.024;14.492;2023-04-03T08:04:14;4.33;;;2.07;;
75787;SDS011;64406;50.024;14.492;2023-04-03T08:06:40;4.87;;;2.07;;
75787;SDS011;64406;50.024;14.492;2023-04-03T08:09:06;5.73;;;2.30;;
75787;SDS011;64406;50.024;14.492;2023-04-03T08:11:31;3.63;;;1.90;;
75787;SDS011;64406;50.024;14.492;2023-04-03T08:13:57;3.13;;;2.27;;
75787;SDS011;64406;50.024;14.492;2023-04-03T08:16:23;4.87;;;2.57;;
75787;SDS011;64406;50.024;14.492;2023-04-03T08:18:52;2.90;;;2.07;;
75787;SDS011;64406;50.024;14.492;2023-04-03T08:21:18;3.43;;;2.43;;
75787;SDS011;64406;50.024;14.492;2023-04-03T08:23:43;7.00;;;2.47;;
75787;SDS011;64406;50.024;14.492;2023-04-03T08:26:10;6.03;;;3.27;;
75787;SDS011;64406;50.024;14.492;2023-04-03T08:28:43;3.75;;;2.30;;
75787;SDS011;64406;50.024;14.492;2023-04-03T08:31:13;6.28;;;2.05;;
75787;SDS011;64406;50.024;14.492;2023-04-03T08:33:40;7.97;;;2.45;;
75787;SDS011;64406;50.024;14.492;2023-04-03T08:36:07;3.33;;;2.20;;
75787;SDS011;64406;50.024;14.492;2023-04-03T08:38:50;3.67;;;1.90;;
75787;SDS011;64406;50.024;14.492;2023-04-03T08:49:25;9.02;;;2.65;;
75787;SDS011;64406;50.024;14.492;2023-04-03T08:51:53;6.15;;;2.22;;
75787;SDS011;64406;50.024;14.492;2023-04-03T08:54:24;5.10;;;2.08;;
75787;SDS011;64406;50.024;14.492;2023-04-03T08:59:26;6.47;;;2.25;;
75787;SDS011;64406;50.024;14.492;2023-04-03T09:01:56;4.22;;;2.03;;
75787;SDS011;64406;50.024;14.492;2023-04-03T09:04:27;2.25;;;1.60;;
75787;SDS011;64406;50.024;14.492;2023-04-03T09:07:02;5.30;;;2.00;;
75787;SDS011;64406;50.024;14.492;2023-04-03T09:09:45;2.55;;;1.40;;
75787;SDS011;64406;50.024;14.492;2023-04-03T09:12:24;4.80;;;1.77;;
75787;SDS011;64406;50.024;14.492;2023-04-03T09:22:59;4.55;;;1.58;;
75787;SDS011;64406;50.024;14.492;2023-04-03T09:25:27;5.45;;;1.77;;
75787;SDS011;64406;50.024;14.492;2023-04-03T09:27:59;3.92;;;1.65;;
75787;SDS011;64406;50.024;14.492;2023-04-03T09:30:26;6.82;;;1.92;;
75787;SDS011;64406;50.024;14.492;2023-04-03T09:32:54;5.53;;;1.83;;
75787;SDS011;64406;50.024;14.492;2023-04-03T09:35:32;4.05;;;1.58;;
75787;SDS011;64406;50.024;14.492;2023-04-03T09:40:36;3.78;;;1.80;;
75787;SDS011;64406;50.024;14.492;2023-04-03T09:45:43;5.07;;;2.17;;
75787;SDS011;64406;50.024;14.492;2023-04-03T09:58:47;4.03;;;1.58;;
75787;SDS011;64406;50.024;14.492;2023-04-03T10:04:02;4.38;;;1.85;;
75787;SDS011;64406;50.024;14.492;2023-04-03T10:06:38;4.88;;;1.67;;
75787;SDS011;64406;50.024;14.492;2023-04-03T10:09:20;4.85;;;2.95;;
75787;SDS011;64406;50.024;14.492;2023-04-03T10:14:35;2.90;;;1.80;;
75787;SDS011;64406;50.024;14.492;2023-04-03T10:19:58;2.15;;;1.23;;
75787;SDS011;64406;50.024;14.492;2023-04-03T10:25:21;2.53;;;1.65;;
75787;SDS011;64406;50.024;14.492;2023-04-03T10:28:02;2.65;;;1.65;;
75787;SDS011;64406;50.024;14.492;2023-04-03T10:36:17;3.05;;;1.85;;
75787;SDS011;64406;50.024;14.492;2023-04-03T10:39:29;4.38;;;1.65;;
75787;SDS011;64406;50.024;14.492;2023-04-03T10:58:29;2.05;;;1.20;;
75787;SDS011;64406;50.024;14.492;2023-04-03T11:01:01;4.38;;;1.75;;
75787;SDS011;64406;50.024;14.492;2023-04-03T11:03:42;3.72;;;1.40;;
75787;SDS011;64406;50.024;14.492;2023-04-03T11:06:11;9.05;;;1.83;;
75787;SDS011;64406;50.024;14.492;2023-04-03T11:08:48;3.17;;;1.73;;
75787;SDS011;64406;50.024;14.492;2023-04-03T11:11:22;4.60;;;1.75;;
75787;SDS011;64406;50.024;14.492;2023-04-03T11:16:25;2.63;;;1.60;;
75787;SDS011;64406;50.024;14.492;2023-04-03T11:18:56;4.20;;;1.55;;
75787;SDS011;64406;50.024;14.492;2023-04-03T11:22:03;2.83;;;1.50;;
75787;SDS011;64406;50.024;14.492;2023-04-03T11:24:25;3.53;;;1.55;;
75787;SDS011;64406;50.024;14.492;2023-04-03T11:26:54;2.28;;;1.70;;
75787;SDS011;64406;50.024;14.492;2023-04-03T11:29:26;2.22;;;1.65;;
75787;SDS011;64406;50.024;14.492;2023-04-03T11:37:27;3.85;;;1.60;;
75787;SDS011;64406;50.024;14.492;2023-04-03T11:40:04;2.47;;;1.48;;
75787;SDS011;64406;50.024;14.492;2023-04-03T11:42:52;3.25;;;1.42;;
75787;SDS011;64406;50.024;14.492;2023-04-03T11:45:25;2.20;;;1.20;;
75787;SDS011;64406;50.024;14.492;2023-04-03T11:48:29;4.30;;;1.92;;
75787;SDS011;64406;50.024;14.492;2023-04-03T11:50:55;2.05;;;1.15;;
75787;SDS011;64406;50.024;14.492;2023-04-03T11:55:54;2.08;;;1.25;;
75787;SDS011;64406;50.024;14.492;2023-04-03T11:58:22;2.17;;;1.27;;
75787;SDS011;64406;50.024;14.492;2023-04-03T12:00:51;1.67;;;1.23;;
75787;SDS011;64406;50.024;14.492;2023-04-03T12:13:36;2.08;;;1.25;;
75787;SDS011;64406;50.024;14.492;2023-04-03T12:16:40;2.72;;;1.27;;
75787;SDS011;64406;50.024;14.492;2023-04-03T12:29:28;2.13;;;1.27;;
75787;SDS011;64406;50.024;14.492;2023-04-03T12:37:51;0.90;;;0.70;;
75787;SDS011;64406;50.024;14.492;2023-04-03T12:46:00;3.80;;;1.30;;
75787;SDS011;64406;50.024;14.492;2023-04-03T12:48:37;3.80;;;1.20;;
75787;SDS011;64406;50.024;14.492;2023-04-03T12:51:15;3.58;;;1.40;;
75787;SDS011;64406;50.024;14.492;2023-04-03T12:56:41;1.33;;;1.05;;
75787;SDS011;64406;50.024;14.492;2023-04-03T12:59:15;3.50;;;1.17;;
75787;SDS011;64406;50.024;14.492;2023-04-03T13:01:44;2.25;;;1.23;;
75787;SDS011;64406;50.024;14.492;2023-04-03T13:04:19;1.25;;;0.73;;
75787;SDS011;64406;50.024;14.492;2023-04-03T13:06:44;4.82;;;1.65;;
75787;SDS011;64406;50.024;14.492;2023-04-03T13:09:24;2.08;;;1.05;;
75787;SDS011;64406;50.024;14.492;2023-04-03T13:12:03;1.92;;;1.08;;
75787;SDS011;64406;50.024;14.492;2023-04-03T13:14:36;1.30;;;0.80;;
75787;SDS011;64406;50.024;14.492;2023-04-03T13:17:15;2.25;;;1.13;;
75787;SDS011;64406;50.024;14.492;2023-04-03T13:19:42;2.80;;;1.40;;
75787;SDS011;64406;50.024;14.492;2023-04-03T13:24:51;5.05;;;1.30;;
75787;SDS011;64406;50.024;14.492;2023-04-03T13:27:19;3.15;;;1.73;;
75787;SDS011;64406;50.024;14.492;2023-04-03T13:29:53;3.00;;;1.20;;
75787;SDS011;64406;50.024;14.492;2023-04-03T13:32:22;2.08;;;1.15;;
75787;SDS011;64406;50.024;14.492;2023-04-03T13:34:50;3.30;;;1.20;;
75787;SDS011;64406;50.024;14.492;2023-04-03T13:37:21;4.80;;;1.30;;
75787;SDS011;64406;50.024;14.492;2023-04-03T13:42:28;3.00;;;1.17;;
75787;SDS011;64406;50.024;14.492;2023-04-03T13:45:21;2.53;;;0.82;;
75787;SDS011;64406;50.024;14.492;2023-04-03T13:47:54;2.60;;;0.98;;
75787;SDS011;64406;50.024;14.492;2023-04-03T13:50:41;4.10;;;1.38;;
75787;SDS011;64406;50.024;14.492;2023-04-03T13:53:16;1.70;;;1.35;;
75787;SDS011;64406;50.024;14.492;2023-04-03T13:55:56;2.20;;;1.23;;
75787;SDS011;64406;50.024;14.492;2023-04-03T13:58:28;1.02;;;0.93;;
75787;SDS011;64406;50.024;14.492;2023-04-03T14:03:33;1.75;;;0.80;;
75787;SDS011;64406;50.024;14.492;2023-04-03T14:06:06;4.70;;;1.73;;
75787;SDS011;64406;50.024;14.492;2023-04-03T14:08:34;2.08;;;1.08;;
75787;SDS011;64406;50.024;14.492;2023-04-03T14:11:00;2.85;;;1.05;;
75787;SDS011;64406;50.024;14.492;2023-04-03T14:13:26;2.58;;;0.88;;
75787;SDS011;64406;50.024;14.492;2023-04-03T14:15:55;0.70;;;0.68;;
75787;SDS011;64406;50.024;14.492;2023-04-03T14:18:20;2.58;;;1.00;;
75787;SDS011;64406;50.024;14.492;2023-04-03T14:20:47;3.10;;;1.00;;
75787;SDS011;64406;50.024;14.492;2023-04-03T14:23:13;1.48;;;0.80;;
75787;SDS011;64406;50.024;14.492;2023-04-03T14:25:41;1.75;;;0.70;;
75787;SDS011;64406;50.024;14.492;2023-04-03T14:28:12;1.52;;;0.85;;
75787;SDS011;64406;50.024;14.492;2023-04-03T14:30:41;2.80;;;1.15;;
75787;SDS011;64406;50.024;14.492;2023-04-03T14:33:09;2.10;;;0.75;;
75787;SDS011;64406;50.024;14.492;2023-04-03T14:35:39;2.13;;;1.13;;
75787;SDS011;64406;50.024;14.492;2023-04-03T14:38:05;1.63;;;1.13;;
75787;SDS011;64406;50.024;14.492;2023-04-03T14:40:45;2.90;;;1.02;;
75787;SDS011;64406;50.024;14.492;2023-04-03T14:43:12;2.50;;;0.90;;
75787;SDS011;64406;50.024;14.492;2023-04-03T14:45:38;5.97;;;1.50;;
75787;SDS011;64406;50.024;14.492;2023-04-03T14:48:04;6.35;;;1.77;;
75787;SDS011;64406;50.024;14.492;2023-04-03T14:50:34;3.60;;;1.45;;
75787;SDS011;64406;50.024;14.492;2023-04-03T14:53:00;3.15;;;0.95;;
75787;SDS011;64406;50.024;14.492;2023-04-03T14:55:26;2.45;;;0.93;;
75787;SDS011;64406;50.024;14.492;2023-04-03T14:57:53;2.35;;;1.25;;
75787;SDS011;64406;50.024;14.492;2023-04-03T15:00:20;3.92;;;1.48;;
75787;SDS011;64406;50.024;14.492;2023-04-03T15:02:47;4.65;;;1.52;;
75787;SDS011;64406;50.024;14.492;2023-04-03T15:05:13;2.45;;;0.88;;
75787;SDS011;64406;50.024;14.492;2023-04-03T15:07:40;2.35;;;0.95;;
75787;SDS011;64406;50.024;14.492;2023-04-03T15:12:40;4.65;;;1.00;;
75787;SDS011;64406;50.024;14.492;2023-04-03T15:15:06;5.80;;;1.15;;
75787;SDS011;64406;50.024;14.492;2023-04-03T15:17:32;2.30;;;1.25;;
75787;SDS011;64406;50.024;14.492;2023-04-03T15:19:59;3.60;;;1.05;;
75787;SDS011;64406;50.024;14.492;2023-04-03T15:22:25;5.50;;;1.20;;
75787;SDS011;64406;50.024;14.492;2023-04-03T15:24:51;1.55;;;0.80;;
75787;SDS011;64406;50.024;14.492;2023-04-03T15:27:16;2.50;;;1.20;;
75787;SDS011;64406;50.024;14.492;2023-04-03T15:29:44;2.30;;;1.05;;
75787;SDS011;64406;50.024;14.492;2023-04-03T15:32:10;3.42;;;1.08;;
75787;SDS011;64406;50.024;14.492;2023-04-03T15:34:37;2.55;;;1.20;;
75787;SDS011;64406;50.024;14.492;2023-04-03T15:37:03;2.83;;;1.20;;
75787;SDS011;64406;50.024;14.492;2023-04-03T15:39:30;2.72;;;1.52;;
75787;SDS011;64406;50.024;14.492;2023-04-03T15:41:56;1.60;;;1.17;;
75787;SDS011;64406;50.024;14.492;2023-04-03T15:44:25;1.85;;;1.05;;
75787;SDS011;64406;50.024;14.492;2023-04-03T15:46:53;1.77;;;0.98;;
75787;SDS011;64406;50.024;14.492;2023-04-03T15:49:21;2.72;;;1.10;;
75787;SDS011;64406;50.024;14.492;2023-04-03T15:51:47;1.08;;;0.85;;
75787;SDS011;64406;50.024;14.492;2023-04-03T15:54:13;0.98;;;0.73;;
75787;SDS011;64406;50.024;14.492;2023-04-03T15:56:38;1.90;;;0.98;;
75787;SDS011;64406;50.024;14.492;2023-04-03T15:59:05;2.95;;;0.90;;
75787;SDS011;64406;50.024;14.492;2023-04-03T16:01:30;3.17;;;1.15;;
75787;SDS011;64406;50.024;14.492;2023-04-03T16:03:57;2.65;;;1.08;;
75787;SDS011;64406;50.024;14.492;2023-04-03T16:06:22;5.47;;;1.20;;
75787;SDS011;64406;50.024;14.492;2023-04-03T16:08:50;1.27;;;1.05;;
75787;SDS011;64406;50.024;14.492;2023-04-03T16:11:16;2.58;;;1.02;;
75787;SDS011;64406;50.024;14.492;2023-04-03T16:13:42;3.75;;;1.20;;
75787;SDS011;64406;50.024;14.492;2023-04-03T16:16:08;4.72;;;1.25;;
75787;SDS011;64406;50.024;14.492;2023-04-03T16:18:37;8.23;;;1.52;;
75787;SDS011;64406;50.024;14.492;2023-04-03T16:21:02;2.85;;;0.90;;
75787;SDS011;64406;50.024;14.492;2023-04-03T16:23:28;1.27;;;0.93;;
75787;SDS011;64406;50.024;14.492;2023-04-03T16:25:56;1.50;;;0.88;;
75787;SDS011;64406;50.024;14.492;2023-04-03T16:28:22;1.52;;;0.90;;
75787;SDS011;64406;50.024;14.492;2023-04-03T16:30:49;2.88;;;1.00;;
75787;SDS011;64406;50.024;14.492;2023-04-03T16:33:15;3.42;;;1.30;;
75787;SDS011;64406;50.024;14.492;2023-04-03T16:35:40;3.10;;;1.20;;
75787;SDS011;64406;50.024;14.492;2023-04-03T16:38:09;3.20;;;1.20;;
75787;SDS011;64406;50.024;14.492;2023-04-03T16:40:35;2.55;;;1.23;;
75787;SDS011;64406;50.024;14.492;2023-04-03T16:43:01;2.37;;;1.00;;
75787;SDS011;64406;50.024;14.492;2023-04-03T16:45:27;2.20;;;1.07;;
75787;SDS011;64406;50.024;14.492;2023-04-03T16:47:53;4.28;;;1.27;;
75787;SDS011;64406;50.024;14.492;2023-04-03T16:50:19;2.90;;;1.33;;
75787;SDS011;64406;50.024;14.492;2023-04-03T16:52:45;3.08;;;1.27;;
75787;SDS011;64406;50.024;14.492;2023-04-03T16:55:11;2.67;;;1.00;;
75787;SDS011;64406;50.024;14.492;2023-04-03T16:57:37;1.50;;;0.90;;
75787;SDS011;64406;50.024;14.492;2023-04-03T17:00:03;5.37;;;1.47;;